ADDS METAR Data

Data at: 1829 UTC 20 Jul 2018

METAR for:CYFC (Fredericton Intl, NB, CN)
Text:CYFC 201800Z AUTO 21004KT 160V240 9SM CLR 29/13 A3014 RMK SLP208 DENSITY ALT 1400FT
Temperature: 29.0°C ( 84°F)
Dewpoint: 13.0°C ( 55°F) [RH = 37%]
Pressure (altimeter):30.14 inches Hg (1020.7 mb) [Sea level pressure: 1020.8 mb]
Winds:from the SSW (210 degrees) at 5 MPH (4 knots; 2.1 m/s)
Visibility: 9 sm ( 14 km)
Ceiling:at least 12,000 feet AGL
Clouds:sky clear below 12,000 feet AGL